Virginia Beach, VA (23465)

8:39 PM EDT on August 30, 2016 (GMT -0400)
Lake Christopher | | Change Station
Active Advisory: Beach Hazard Statement

Elev 45 ft 36.79 °N, 76.17 °W | Updated 12 minutes ago

Clear
Clear
79.2 °F
Feels Like 83 °F
N
3.7
Wind Variable Wind from ESE

Today
High -- | Low -- °F
--% Chance of Precip.
Yesterday
High -- | Low -- °F
Precip. -- in
Pressure 30.02 in
Visibility 10.0 miles
Clouds Clear
Heat Index 83 °F
Dew Point 75 °F
Humidity 87%
Rainfall 0.00 in
Snow Depth Not available.
6:34 AM 7:35 PM
Waning Crescent, 2% visible
METAR KORF 302351Z 09008KT 10SM CLR 26/23 A3002 RMK AO2 SLP164 T02610233 10294 20261 56005
Pressure 30.02 in
Visibility 10.0 miles
Clouds Clear
Heat Index 83 °F
Dew Point 75 °F
Humidity 87%
Rainfall 0.00 in
Snow Depth Not available.
6:34 AM 7:35 PM
Waning Crescent, 2% visible
METAR KORF 302351Z 09008KT 10SM CLR 26/23 A3002 RMK AO2 SLP164 T02610233 10294 20261 56005

10-Day Weather Forecast

Almanac

Astronomy

Aug. 30, 2016 Rise Set
Actual Time
Civil Twilight
Nautical Twilight
Astronomical Twilight
Moon
Length of Visible Light
Length of Day
Tomorrow will be .
, % of the Moon is Illuminated

Today's Extremes

State Highs State Lows

Community

WunderPhotos

Upload Photos

1,935,963 photos uploaded!

WunderBlog® & News

Nearby

Air Quality

  Air Quality AQ Index Pollutant
Not available.

Snow Depth

Station Depth Elevation

Earthquake Activity

City Distance Mag. Time & Date
Minimum magnitude displayed is 2.5.

Coastal Water Temperatures

Place Temperature

Stations

Nearby Weather Stations

Station Location Temp. Windchill Dew Point Humidity Wind Precip. Elev Updated Type
                   

Watches & Warnings

Beach Hazard Statement
Issued: 3:55 PM EDT Aug. 30, 2016 – National Weather Service

... Beach hazards statement now in effect through Wednesday evening...

* hazards: high risk for dangerous rip currents.

* Location: Virginia Beach and Currituck.

* Surf height: nearshore waves of 4 to 5 feet.

Precautionary/preparedness actions...

A beach hazards statement is issued when threats such as rip currents...
longshore currents... large breaking waves and other hazards are possible.
Caution should be used when in or near the water.

Please visit the following website to share your thoughts on the new beach
hazards statement...

Http://www.Weather.Gov/survey/NWS-survey.Php?Code=chmbhs